Time;durP1;ratioP1;P1;durP2;ratioP2;P2;SDS_P1;SDS_P2;PMS_P1;PMS_P2;Temp;Humidity;BMP_temperature;BMP_pressure;BME280_temperature;BME280_humidity;BME280_pressure;Samples;Min_cycle;Max_cycle;Signal;HPM_P1;HPM_P2
2021/12/07 00:02:25;;;;;;;35.70;12.32;;;;;;;2.34;100.00;100632.53;5222325;28;20116;-68
2021/12/07 00:04:55;;;;;;;35.20;10.90;;;;;;;2.45;100.00;100629.03;5223001;28;20029;-68
2021/12/07 00:07:26;;;;;;;34.70;10.98;;;;;;;2.53;100.00;100645.19;5223706;28;20028;-68
2021/12/07 00:09:56;;;;;;;31.70;9.82;;;;;;;2.57;100.00;100649.28;5223466;28;20103;-68
2021/12/07 00:12:34;;;;;;;39.92;10.75;;;;;;;2.55;100.00;100656.47;5223267;28;20436;-68
2021/12/07 00:15:06;;;;;;;36.58;9.45;;;;;;;2.52;100.00;100651.44;5222496;28;20032;-68
2021/12/07 00:17:37;;;;;;;37.40;10.02;;;;;;;2.57;100.00;100668.66;5222276;28;20047;-68
2021/12/07 00:20:12;;;;;;;33.88;9.00;;;;;;;2.65;100.00;100662.75;5223313;28;20089;-68
2021/12/07 00:22:45;;;;;;;29.65;8.00;;;;;;;2.67;100.00;100668.78;5223050;28;20041;-68
2021/12/07 00:25:16;;;;;;;31.92;8.32;;;;;;;2.68;100.00;100666.97;5222797;28;20518;-68
2021/12/07 00:27:46;;;;;;;25.50;7.97;;;;;;;2.73;100.00;100676.25;5222915;28;20120;-68
2021/12/07 00:30:17;;;;;;;31.30;8.25;;;;;;;2.69;100.00;100682.75;5223241;28;20021;-68
2021/12/07 00:33:05;;;;;;;29.70;7.45;;;;;;;2.69;100.00;100676.59;5222805;28;20032;-68
2021/12/07 00:35:36;;;;;;;42.20;6.43;;;;;;;2.77;100.00;100692.75;5221302;28;20500;-67
2021/12/07 00:38:13;;;;;;;45.00;8.05;;;;;;;2.87;100.00;100692.88;5222521;28;20036;-68
2021/12/07 00:40:44;;;;;;;36.05;8.18;;;;;;;2.89;100.00;100701.53;5222804;28;20028;-68
2021/12/07 00:43:16;;;;;;;26.67;7.07;;;;;;;2.94;100.00;100697.56;5223203;28;20100;-67
2021/12/07 00:45:47;;;;;;;29.33;7.00;;;;;;;2.96;100.00;100693.00;5222123;28;20029;-67
2021/12/07 00:48:18;;;;;;;24.85;6.88;;;;;;;2.98;100.00;100699.00;5222703;28;20040;-67
2021/12/07 00:50:49;;;;;;;33.63;6.75;;;;;;;3.02;100.00;100705.75;5222054;28;20094;-68
2021/12/07 00:53:20;;;;;;;28.30;7.30;;;;;;;3.00;100.00;100697.06;5222711;28;20036;-68
2021/12/07 00:55:55;;;;;;;29.63;6.90;;;;;;;3.04;100.00;100706.47;5221668;28;20326;-68
2021/12/07 00:58:26;;;;;;;31.57;7.17;;;;;;;3.03;100.00;100714.56;5222385;28;20397;-68
2021/12/07 01:01:02;;;;;;;29.05;7.03;;;;;;;3.04;100.00;100724.19;5221990;28;20319;-68
2021/12/07 01:03:34;;;;;;;27.52;7.43;;;;;;;3.07;100.00;100722.16;5222714;28;20025;-68
2021/12/07 01:06:27;;;;;;;45.67;8.63;;;;;;;3.10;100.00;100724.53;5221760;28;20017;-68
2021/12/07 01:26:04;;;;;;;28.35;5.00;;;;;;;2.76;100.00;100770.53;5221234;28;20032;-68
2021/12/07 01:28:39;;;;;;;27.83;6.68;;;;;;;2.73;100.00;100766.31;5222475;28;20013;-68
2021/12/07 01:31:18;;;;;;;19.27;4.90;;;;;;;2.71;100.00;100762.97;5221993;28;20021;-67
2021/12/07 01:34:09;;;;;;;25.85;5.13;;;;;;;2.69;100.00;100767.50;5221847;28;20394;-68
2021/12/07 01:45:17;;;;;;;22.17;4.53;;;;;;;2.56;100.00;100782.63;5220798;28;20109;-68
2021/12/07 01:48:07;;;;;;;29.63;5.10;;;;;;;2.52;100.00;100790.00;5221282;28;20025;-68
2021/12/07 01:51:02;;;;;;;27.27;5.78;;;;;;;2.49;100.00;100794.66;5221002;28;20024;-67
2021/12/07 02:02:05;;;;;;;23.90;4.38;;;;;;;2.47;100.00;100810.69;5221014;28;20564;-68
2021/12/07 02:04:38;;;;;;;19.80;5.07;;;;;;;2.47;100.00;100823.06;5221607;28;20017;-67
2021/12/07 02:07:09;;;;;;;31.33;5.03;;;;;;;2.40;100.00;100820.03;5221604;28;20041;-68
2021/12/07 02:09:44;;;;;;;28.65;5.63;;;;;;;2.42;100.00;100817.28;5221025;28;20032;-68
2021/12/07 02:12:15;;;;;;;29.30;4.35;;;;;;;2.44;100.00;100818.00;5221693;28;20071;-67
2021/12/07 02:14:46;;;;;;;21.27;4.63;;;;;;;2.42;100.00;100822.56;5218049;28;20535;-67
2021/12/07 02:17:22;;;;;;;26.77;4.75;;;;;;;2.43;100.00;100824.25;5221537;28;20033;-67
2021/12/07 02:19:53;;;;;;;27.05;7.50;;;;;;;2.37;100.00;100825.56;5221213;28;20023;-67
2021/12/07 02:22:24;;;;;;;21.52;4.65;;;;;;;2.39;100.00;100831.59;5221014;28;20078;-67
2021/12/07 02:24:54;;;;;;;35.30;4.72;;;;;;;2.42;100.00;100836.66;5220870;28;20020;-67
2021/12/07 02:27:25;;;;;;;26.05;4.68;;;;;;;2.39;100.00;100828.09;5221339;28;20040;-67
2021/12/07 02:29:56;;;;;;;26.92;4.45;;;;;;;2.37;100.00;100828.22;5220958;28;20108;-67
2021/12/07 02:32:26;;;;;;;21.63;4.47;;;;;;;2.34;100.00;100833.72;5221122;28;20390;-68
2021/12/07 02:35:00;;;;;;;22.30;4.43;;;;;;;2.29;100.00;100841.16;5220466;28;20491;-67
2021/12/07 02:37:35;;;;;;;20.13;4.40;;;;;;;2.28;100.00;100842.97;5221156;28;20051;-67
2021/12/07 02:40:07;;;;;;;24.02;5.03;;;;;;;2.30;100.00;100859.56;5221015;28;20025;-68
2021/12/07 02:42:39;;;;;;;28.52;5.00;;;;;;;2.29;100.00;100857.88;5220822;28;20055;-67
2021/12/07 02:45:10;;;;;;;15.68;4.18;;;;;;;2.26;100.00;100863.44;5220397;28;20025;-67
2021/12/07 02:47:42;;;;;;;23.77;3.55;;;;;;;2.24;100.00;100861.84;5221185;28;20021;-68
2021/12/07 02:50:14;;;;;;;27.75;4.05;;;;;;;2.24;100.00;100867.13;5221220;28;20106;-68
2021/12/07 02:52:45;;;;;;;25.10;4.68;;;;;;;2.19;100.00;100872.75;5221131;28;20017;-68
2021/12/07 02:55:17;;;;;;;36.92;5.03;;;;;;;2.24;100.00;100875.91;5220353;28;20033;-68
2021/12/07 02:57:48;;;;;;;19.88;4.00;;;;;;;2.28;100.00;100874.72;5220627;28;20046;-68
2021/12/07 03:00:23;;;;;;;34.50;5.68;;;;;;;2.29;100.00;100873.78;5222097;28;20028;-68
2021/12/07 03:03:09;;;;;;;26.02;4.25;;;;;;;2.37;100.00;100881.16;5221028;28;20613;-68
2021/12/07 03:05:59;;;;;;;28.00;3.67;;;;;;;2.38;100.00;100892.59;5207396;28;20041;-68
2021/12/07 03:09:12;;;;;;;27.58;4.97;;;;;;;2.39;100.00;100894.28;5220762;28;20030;-68
2021/12/07 03:28:21;;;;;;;29.52;5.65;;;;;;;2.54;100.00;100903.75;5211035;28;20029;-68
2021/12/07 03:30:52;;;;;;;48.03;13.88;;;;;;;2.48;100.00;100909.50;5224003;28;20029;-68
2021/12/07 03:33:23;;;;;;;32.67;5.13;;;;;;;2.51;100.00;100909.25;5224341;28;20496;-68
2021/12/07 03:35:53;;;;;;;19.67;4.75;;;;;;;2.45;100.00;100905.25;5224100;28;20104;-67
2021/12/07 03:38:24;;;;;;;19.02;4.30;;;;;;;2.37;100.00;100902.34;5224536;28;20028;-68
2021/12/07 03:40:55;;;;;;;17.80;4.00;;;;;;;2.30;100.00;100914.31;5224169;28;20412;-68
2021/12/07 03:43:26;;;;;;;30.52;14.30;;;;;;;2.28;100.00;100914.44;5224000;28;20025;-67
2021/12/07 03:45:56;;;;;;;28.60;7.88;;;;;;;2.24;100.00;100912.97;5223920;28;20383;-67
2021/12/07 03:48:28;;;;;;;25.40;5.38;;;;;;;2.21;100.00;100907.91;5223986;28;20024;-67
2021/12/07 03:50:58;;;;;;;36.30;13.13;;;;;;;2.20;100.00;100921.25;5223732;28;20052;-67
2021/12/07 03:53:30;;;;;;;20.95;4.28;;;;;;;2.15;100.00;100916.28;5223704;28;20056;-67
2021/12/07 03:56:01;;;;;;;22.67;5.80;;;;;;;2.16;100.00;100912.69;5215423;28;20025;-67
2021/12/07 03:58:33;;;;;;;20.00;6.30;;;;;;;2.15;100.00;100924.22;5219431;28;20477;-67
2021/12/07 04:01:06;;;;;;;21.10;5.53;;;;;;;2.19;100.00;100920.41;5223483;28;20104;-68
2021/12/07 04:03:38;;;;;;;18.35;3.70;;;;;;;2.20;100.00;100915.94;5223605;28;20032;-67
2021/12/07 04:06:09;;;;;;;23.98;6.47;;;;;;;2.14;100.00;100927.81;5223257;28;20021;-67
2021/12/07 04:08:42;;;;;;;28.23;7.82;;;;;;;2.06;100.00;100925.75;5223173;28;20035;-68
2021/12/07 04:11:13;;;;;;;22.80;9.55;;;;;;;2.02;100.00;100923.44;5222281;28;20031;-68
2021/12/07 04:13:45;;;;;;;20.35;4.68;;;;;;;1.93;100.00;100922.28;5222883;28;20029;-68
2021/12/07 04:16:17;;;;;;;23.90;9.55;;;;;;;1.90;100.00;100932.22;5223128;28;20028;-68
2021/12/07 04:18:48;;;;;;;19.35;3.85;;;;;;;1.80;100.00;100935.50;5223664;28;20025;-68
2021/12/07 04:21:18;;;;;;;27.95;4.07;;;;;;;1.75;100.00;100948.22;5223171;28;20040;-68
2021/12/07 04:23:49;;;;;;;18.50;3.42;;;;;;;1.67;100.00;100942.63;5223507;28;20032;-68
2021/12/07 04:26:19;;;;;;;19.30;3.92;;;;;;;1.61;100.00;100943.06;5222883;28;20025;-67
2021/12/07 04:28:50;;;;;;;16.95;4.55;;;;;;;1.60;100.00;100951.06;5223351;28;20041;-68
2021/12/07 04:31:20;;;;;;;24.92;3.88;;;;;;;1.56;100.00;100945.16;5222348;28;20435;-67
2021/12/07 04:33:51;;;;;;;21.00;4.05;;;;;;;1.51;100.00;100944.66;5223051;28;20108;-68
2021/12/07 04:36:22;;;;;;;20.33;4.78;;;;;;;1.53;100.00;100950.66;5222692;28;20384;-68
2021/12/07 04:38:52;;;;;;;21.08;5.15;;;;;;;1.50;100.00;100954.34;5222759;28;20044;-68
2021/12/07 04:41:23;;;;;;;19.52;6.05;;;;;;;1.49;100.00;100955.31;5223364;28;20020;-68
2021/12/07 04:43:53;;;;;;;24.85;3.80;;;;;;;1.49;100.00;100962.41;5222459;28;20032;-68
2021/12/07 04:46:34;;;;;;;17.80;4.35;;;;;;;1.47;100.00;100970.44;5222578;28;20096;-67
2021/12/07 04:49:46;;;;;;;32.55;4.45;;;;;;;1.47;100.00;100966.97;5222757;28;20028;-67
2021/12/07 04:57:49;;;;;;;16.20;4.72;;;;;;;1.37;100.00;100942.09;5211157;28;20032;-67
2021/12/07 05:00:24;;;;;;;27.45;4.28;;;;;;;1.37;100.00;100937.66;5223384;28;20024;-67
2021/12/07 05:02:59;;;;;;;29.25;4.25;;;;;;;1.30;100.00;100941.66;5222351;28;20508;-67
2021/12/07 05:05:34;;;;;;;;;;;;;;;1.33;100.00;100948.53;5222322;28;20028;-67
2021/12/07 05:08:09;;;;;;;26.52;6.82;;;;;;;1.32;100.00;100962.72;5222482;28;20012;-67
2021/12/07 05:11:12;;;;;;;39.97;12.13;;;;;;;1.28;100.00;100957.63;5222796;28;20078;-67
2021/12/07 05:16:11;;;;;;;34.25;10.02;;;;;;;1.25;100.00;100964.91;5221880;28;20468;-67
2021/12/07 05:18:59;;;;;;;131.63;57.35;;;;;;;1.27;100.00;100970.94;5209232;28;20029;-67
2021/12/07 05:24:22;;;;;;;35.20;9.77;;;;;;;1.20;100.00;100983.72;5221495;28;20059;-67
2021/12/07 05:37:44;;;;;;;20.75;5.07;;;;;;;1.13;100.00;100995.66;5221364;28;20061;-67
2021/12/07 05:37:59;;;;;;;25.27;5.68;;;;;;;1.09;100.00;101007.38;5221309;28;20028;-67
2021/12/07 05:40:34;;;;;;;45.63;9.55;;;;;;;1.11;100.00;101005.50;5221514;28;20029;-67
2021/12/07 05:43:04;;;;;;;25.52;4.97;;;;;;;1.20;100.00;101006.66;5220914;28;20028;-67
2021/12/07 05:45:37;;;;;;;14.25;4.57;;;;;;;1.26;100.00;101001.81;5221228;28;20473;-67
2021/12/07 05:48:08;;;;;;;35.53;14.20;;;;;;;1.24;100.00;101016.91;5221713;28;20112;-67
2021/12/07 05:50:40;;;;;;;30.33;6.65;;;;;;;1.25;100.00;101012.47;5221126;28;20036;-67
2021/12/07 05:53:12;;;;;;;27.77;6.82;;;;;;;1.25;100.00;101015.97;5221945;28;20370;-67
2021/12/07 05:55:42;;;;;;;39.80;11.95;;;;;;;1.23;100.00;101025.81;5220982;28;20063;-68
2021/12/07 05:58:14;;;;;;;30.90;10.48;;;;;;;1.27;100.00;101021.16;5221617;28;20436;-67
2021/12/07 06:00:46;;;;;;;53.85;17.35;;;;;;;1.26;100.00;101036.19;5222637;28;20029;-67
2021/12/07 06:03:17;;;;;;;60.33;29.15;;;;;;;1.27;100.00;101035.22;5220949;28;20081;-67
2021/12/07 06:05:48;;;;;;;23.25;6.15;;;;;;;1.28;100.00;101046.66;5221091;28;20100;-67
2021/12/07 06:08:18;;;;;;;21.17;5.18;;;;;;;1.23;100.00;101041.66;5221425;28;20025;-68
2021/12/07 06:10:49;;;;;;;17.88;3.53;;;;;;;1.22;100.00;101039.97;5221293;28;20481;-67
2021/12/07 06:13:19;;;;;;;30.42;5.03;;;;;;;1.16;100.00;101036.91;5220657;28;20021;-67
2021/12/07 06:15:50;;;;;;;16.27;3.75;;;;;;;1.12;100.00;101028.31;5220437;28;20059;-67
2021/12/07 06:18:20;;;;;;;26.65;2.75;;;;;;;1.06;100.00;101034.00;5221293;28;20036;-68
2021/12/07 06:20:51;;;;;;;19.38;3.42;;;;;;;0.98;100.00;101037.13;5202122;28;20025;-67
2021/12/07 06:23:22;;;;;;;13.35;2.92;;;;;;;0.94;100.00;101038.28;5218307;28;20035;-68
2021/12/07 06:25:54;;;;;;;23.75;3.42;;;;;;;0.89;100.00;101043.00;5219468;28;20025;-68
2021/12/07 06:28:25;;;;;;;21.15;4.47;;;;;;;0.87;100.00;101044.06;5219591;28;20074;-68
2021/12/07 06:30:57;;;;;;;23.15;8.15;;;;;;;0.84;100.00;101045.09;5219916;28;20481;-67
2021/12/07 06:33:27;;;;;;;20.73;6.90;;;;;;;0.84;100.00;101039.81;5219869;28;20031;-67
2021/12/07 06:36:01;;;;;;;29.02;4.68;;;;;;;0.78;100.00;101046.34;5219487;28;20339;-67
2021/12/07 06:38:34;;;;;;;16.00;4.10;;;;;;;0.74;100.00;101047.50;5219269;28;20035;-67
2021/12/07 06:41:04;;;;;;;24.88;3.65;;;;;;;0.68;100.00;101039.13;5218728;28;20107;-67
2021/12/07 06:43:35;;;;;;;18.52;4.28;;;;;;;0.69;100.00;101039.00;5219843;28;20035;-67
2021/12/07 06:46:06;;;;;;;18.55;5.75;;;;;;;0.74;100.00;101044.84;5219971;28;20019;-66
2021/12/07 06:48:36;;;;;;;21.10;6.75;;;;;;;0.70;100.00;101039.84;5219617;28;20079;-67
2021/12/07 06:51:07;;;;;;;17.95;6.57;;;;;;;0.62;100.00;101032.44;5219317;28;20041;-67
2021/12/07 06:53:38;;;;;;;20.55;4.95;;;;;;;0.60;100.00;101022.91;5220118;28;20432;-67
2021/12/07 06:56:10;;;;;;;17.98;4.15;;;;;;;0.55;100.00;101022.34;5223334;28;20375;-67
2021/12/07 06:58:40;;;;;;;27.63;5.13;;;;;;;0.51;100.00;101011.16;5223219;28;20448;-67
2021/12/07 07:01:11;;;;;;;23.67;4.15;;;;;;;0.45;100.00;101008.88;5224726;28;20021;-67
2021/12/07 07:03:43;;;;;;;23.25;4.63;;;;;;;0.38;100.00;101018.16;5223264;28;20029;-67
2021/12/07 07:06:13;;;;;;;23.40;5.25;;;;;;;0.33;100.00;101022.88;5223471;28;20024;-67
2021/12/07 07:08:44;;;;;;;20.65;4.22;;;;;;;0.30;100.00;101025.69;5223047;28;20021;-67
2021/12/07 07:11:14;;;;;;;29.92;6.80;;;;;;;0.24;100.00;101027.78;5223495;28;20020;-67
2021/12/07 07:13:47;;;;;;;26.55;4.10;;;;;;;0.19;100.00;101032.50;5222661;28;20028;-67
2021/12/07 07:16:17;;;;;;;27.90;5.40;;;;;;;0.17;100.00;101029.13;5222769;28;20025;-67
2021/12/07 07:18:48;;;;;;;28.05;5.90;;;;;;;0.24;100.00;101033.06;5223124;28;20028;-67
2021/12/07 07:21:19;;;;;;;29.35;5.88;;;;;;;0.21;100.00;101032.41;5223586;28;20017;-68
2021/12/07 07:23:51;;;;;;;20.75;5.90;;;;;;;0.15;100.00;101038.94;5223673;28;20021;-67
2021/12/07 07:26:22;;;;;;;22.85;6.70;;;;;;;0.08;100.00;101037.59;5222699;28;20019;-67
2021/12/07 07:28:52;;;;;;;26.83;7.03;;;;;;;0.12;100.00;101044.38;5222645;28;20033;-67
2021/12/07 07:31:23;;;;;;;25.40;5.28;;;;;;;0.14;100.00;101045.13;5223471;28;20025;-67
2021/12/07 07:33:54;;;;;;;19.30;5.30;;;;;;;0.14;100.00;101042.47;5223017;28;20092;-66
2021/12/07 07:36:25;;;;;;;28.48;5.25;;;;;;;0.13;100.00;101039.94;5222452;28;20412;-66
2021/12/07 07:38:55;;;;;;;29.70;5.10;;;;;;;0.16;100.00;101037.97;5222100;28;20021;-66
2021/12/07 07:41:26;;;;;;;34.17;5.22;;;;;;;0.20;100.00;101043.88;5223222;28;20108;-65
2021/12/07 07:43:56;;;;;;;30.60;5.90;;;;;;;0.29;100.00;101042.47;5222750;28;20647;-66
2021/12/07 07:46:27;;;;;;;24.30;4.72;;;;;;;0.33;100.00;101044.00;5222753;28;20025;-66
2021/12/07 07:48:58;;;;;;;22.80;4.25;;;;;;;0.37;100.00;101046.34;5222351;28;20533;-65
2021/12/07 07:51:28;;;;;;;24.25;5.22;;;;;;;0.42;100.00;101046.91;5221963;28;20511;-66
2021/12/07 07:53:59;;;;;;;30.23;5.15;;;;;;;0.46;100.00;101039.66;5221607;28;20033;-66
2021/12/07 07:56:30;;;;;;;26.00;5.15;;;;;;;0.48;100.00;101049.16;5221445;28;20565;-67
2021/12/07 07:59:01;;;;;;;27.33;4.57;;;;;;;0.53;100.00;101051.50;5214415;28;20581;-67
2021/12/07 08:01:31;;;;;;;20.23;4.70;;;;;;;0.57;100.00;101036.31;5202312;28;20025;-66
2021/12/07 08:04:03;;;;;;;24.73;5.15;;;;;;;0.65;100.00;101037.53;5208343;28;20115;-66
2021/12/07 08:06:34;;;;;;;17.85;4.20;;;;;;;0.69;100.00;101044.28;5210756;28;20017;-66
2021/12/07 08:09:08;;;;;;;27.83;4.28;;;;;;;0.72;100.00;101046.75;5220452;28;20072;-66
2021/12/07 08:11:39;;;;;;;16.05;3.90;;;;;;;0.82;100.00;101049.66;5213585;28;20098;-66
2021/12/07 08:14:09;;;;;;;22.10;4.43;;;;;;;0.93;100.00;101054.25;5212241;28;20716;-65
2021/12/07 08:16:40;;;;;;;18.15;4.53;;;;;;;1.03;100.00;101063.25;5221471;28;20021;-65
2021/12/07 08:19:10;;;;;;;25.70;4.65;;;;;;;1.16;100.00;101061.53;5221210;28;20028;-64
2021/12/07 08:21:41;;;;;;;22.52;4.38;;;;;;;1.36;100.00;101049.63;5221704;28;20036;-65
2021/12/07 08:24:11;;;;;;;20.00;3.70;;;;;;;1.63;100.00;101048.72;5221101;28;20390;-64
2021/12/07 08:26:42;;;;;;;14.88;3.28;;;;;;;2.06;100.00;101039.53;5221143;28;20049;-66
2021/12/07 08:29:13;;;;;;;24.30;4.03;;;;;;;2.30;100.00;101031.66;5214697;28;20119;-66
2021/12/07 08:31:44;;;;;;;19.13;3.53;;;;;;;2.65;100.00;101019.50;5221259;28;20371;-66
2021/12/07 08:34:14;;;;;;;17.13;3.50;;;;;;;2.94;100.00;101015.56;5219419;28;20049;-68
2021/12/07 08:36:45;;;;;;;19.50;3.58;;;;;;;3.36;100.00;101008.88;5221006;28;20104;-66
2021/12/07 08:39:15;;;;;;;16.17;3.40;;;;;;;3.81;100.00;101014.28;5219923;28;20052;-66
2021/12/07 08:41:46;;;;;;;13.57;3.65;;;;;;;3.93;100.00;101004.53;5221216;28;20031;-71
2021/12/07 08:44:16;;;;;;;13.77;3.75;;;;;;;4.20;100.00;101004.16;5220557;28;20039;-67
2021/12/07 08:46:47;;;;;;;14.20;3.53;;;;;;;4.23;100.00;101013.72;5221103;28;20029;-66
2021/12/07 08:49:19;;;;;;;22.58;3.70;;;;;;;4.55;100.00;101001.34;5220313;28;20072;-66
2021/12/07 08:51:51;;;;;;;19.95;4.00;;;;;;;4.80;100.00;101002.84;5220269;28;20098;-66
2021/12/07 08:59:35;;;;;;;19.55;3.67;;;;;;;4.80;100.00;100997.53;5212675;28;20512;-66
2021/12/07 09:00:09;;;;;;;17.23;3.25;;;;;;;5.20;100.00;100991.59;5213947;28;20055;-66
2021/12/07 09:02:40;;;;;;;21.17;3.17;;;;;;;5.13;100.00;100985.13;5210076;28;20025;-66
2021/12/07 09:05:11;;;;;;;17.10;4.35;;;;;;;5.04;100.00;100977.91;5220157;28;20444;-66
2021/12/07 09:07:42;;;;;;;14.98;3.35;;;;;;;5.49;100.00;100990.97;5210927;28;20480;-66
2021/12/07 09:10:14;;;;;;;15.18;3.22;;;;;;;5.23;100.00;100990.50;5221770;28;20119;-67
2021/12/07 09:12:44;;;;;;;11.32;3.42;;;;;;;5.50;100.00;100988.16;5219101;28;20500;-66
2021/12/07 09:15:15;;;;;;;15.00;3.55;;;;;;;5.82;100.00;100976.59;5218442;28;20036;-66
2021/12/07 09:17:46;;;;;;;14.15;3.50;;;;;;;6.29;100.00;100980.47;5219708;28;20021;-66
2021/12/07 09:20:16;;;;;;;14.63;3.85;;;;;;;6.06;100.00;100977.16;5220210;28;20033;-66
2021/12/07 09:22:47;;;;;;;21.00;3.85;;;;;;;6.53;100.00;100980.13;5220176;28;20020;-66
2021/12/07 09:25:18;;;;;;;17.58;3.40;;;;;;;6.45;100.00;100985.28;5219088;28;20037;-67
2021/12/07 09:27:50;;;;;;;13.98;3.95;;;;;;;6.76;100.00;100975.38;5220044;28;20040;-66
2021/12/07 09:30:21;;;;;;;16.85;3.70;;;;;;;6.68;100.00;100972.59;5220006;28;20115;-66
2021/12/07 09:32:52;;;;;;;16.67;4.00;;;;;;;6.53;100.00;100957.97;5220119;28;20390;-66
2021/12/07 09:35:24;;;;;;;19.50;4.45;;;;;;;6.16;100.00;100964.72;5219319;28;20067;-66
2021/12/07 09:37:54;;;;;;;15.32;4.28;;;;;;;6.66;100.00;100972.69;5219642;28;20040;-66
2021/12/07 09:40:28;;;;;;;16.08;3.42;;;;;;;6.49;100.00;100974.22;5219832;28;20476;-66
2021/12/07 09:42:59;;;;;;;20.05;4.05;;;;;;;6.55;100.00;100964.00;5208954;28;20071;-67
2021/12/07 09:45:31;;;;;;;16.98;3.55;;;;;;;6.14;100.00;100971.16;5220198;28;20045;-66
2021/12/07 09:48:04;;;;;;;10.30;3.60;;;;;;;5.96;100.00;100965.63;5221894;28;20112;-66
2021/12/07 09:50:37;;;;;;;11.77;2.85;;;;;;;5.78;100.00;100968.03;5221833;28;20036;-66
2021/12/07 09:53:10;;;;;;;15.30;3.08;;;;;;;5.27;100.00;100957.34;5220333;28;20025;-66
2021/12/07 09:55:43;;;;;;;16.77;3.58;;;;;;;5.34;100.00;100962.03;5218903;28;20400;-66
2021/12/07 09:58:15;;;;;;;16.30;2.92;;;;;;;5.35;100.00;100970.84;5215031;28;20522;-66
2021/12/07 10:00:47;;;;;;;22.00;3.70;;;;;;;5.06;100.00;100963.47;5213421;28;20025;-66
2021/12/07 10:03:20;;;;;;;15.80;3.20;;;;;;;5.01;100.00;100954.22;5213613;28;20029;-66
2021/12/07 10:05:51;;;;;;;13.20;2.60;;;;;;;4.76;100.00;100948.25;5219422;28;20017;-66
2021/12/07 10:08:22;;;;;;;14.63;2.88;;;;;;;4.79;100.00;100947.19;5219070;28;20051;-67
2021/12/07 10:10:55;;;;;;;19.95;3.20;;;;;;;4.89;100.00;100937.47;5219505;28;20028;-66
2021/12/07 10:13:28;;;;;;;25.05;3.40;;;;;;;4.88;100.00;100930.47;5219896;28;20025;-66
2021/12/07 10:16:03;;;;;;;13.70;2.70;;;;;;;4.96;100.00;100932.47;5219449;28;20060;-67
2021/12/07 10:18:36;;;;;;;19.88;2.90;;;;;;;4.82;100.00;100929.16;5219519;28;20113;-66
2021/12/07 10:21:15;;;;;;;18.25;2.63;;;;;;;5.09;100.00;100931.31;5220031;28;20108;-66
2021/12/07 10:23:50;;;;;;;14.25;2.78;;;;;;;5.27;100.00;100926.28;5219969;28;20033;-66
2021/12/07 10:26:29;;;;;;;8.23;2.25;;;;;;;5.25;100.00;100912.25;5219735;28;20025;-66
2021/12/07 10:29:09;;;;;;;11.57;2.80;;;;;;;5.31;100.00;100911.72;5219761;28;20130;-66
2021/12/07 10:31:47;;;;;;;13.25;2.60;;;;;;;5.18;100.00;100911.09;5207170;28;20055;-67
2021/12/07 10:34:21;;;;;;;16.75;3.00;;;;;;;5.25;100.00;100917.56;5218472;28;20394;-67
2021/12/07 10:36:57;;;;;;;15.60;2.80;;;;;;;5.20;100.00;100917.13;5219950;28;20033;-67
2021/12/07 10:39:42;;;;;;;14.10;3.30;;;;;;;5.03;100.00;100909.75;5218827;28;20354;-67
2021/12/07 10:42:22;;;;;;;18.15;3.13;;;;;;;5.09;100.00;100902.06;5218751;28;20025;-65
2021/12/07 10:44:53;;;;;;;17.45;4.47;;;;;;;5.10;100.00;100886.97;5207887;28;20021;-66
2021/12/07 10:47:24;;;;;;;21.00;3.35;;;;;;;5.17;100.00;100881.00;5218415;28;20193;-65
2021/12/07 10:49:58;;;;;;;35.88;3.47;;;;;;;5.24;100.00;100868.03;5219128;28;20036;-66
2021/12/07 10:52:34;;;;;;;13.60;3.30;;;;;;;5.21;100.00;100860.28;5218608;28;20493;-65
2021/12/07 10:55:20;;;;;;;12.40;2.90;;;;;;;5.18;100.00;100858.75;5218291;28;20025;-66
2021/12/07 10:57:59;;;;;;;14.27;3.03;;;;;;;5.31;100.00;100849.69;5206326;28;20025;-66
2021/12/07 11:00:34;;;;;;;17.88;3.75;;;;;;;5.30;100.00;100856.84;5213714;28;20401;-66
2021/12/07 11:03:10;;;;;;;22.20;4.18;;;;;;;5.14;100.00;100857.31;5210616;28;20578;-66
2021/12/07 11:05:46;;;;;;;20.52;4.15;;;;;;;5.09;100.00;100845.41;5205156;28;20572;-66
2021/12/07 11:08:19;;;;;;;18.55;4.40;;;;;;;5.13;100.00;100850.31;5218588;28;20103;-66
2021/12/07 11:10:51;;;;;;;23.83;4.57;;;;;;;5.27;100.00;100850.94;5218776;28;20493;-66
2021/12/07 11:13:27;;;;;;;27.05;4.90;;;;;;;5.38;100.00;100843.72;5216732;28;20064;-66
2021/12/07 11:16:00;;;;;;;19.30;4.13;;;;;;;5.58;100.00;100843.81;5218451;28;20029;-66
2021/12/07 11:18:37;;;;;;;21.50;4.50;;;;;;;5.67;100.00;100849.19;5205795;28;20484;-66
2021/12/07 11:21:11;;;;;;;17.50;3.70;;;;;;;5.57;100.00;100847.44;5218792;28;20024;-66
2021/12/07 11:23:46;;;;;;;17.85;4.45;;;;;;;5.39;100.00;100842.75;5219078;28;20036;-66
2021/12/07 11:31:52;;;;;;;16.40;3.90;;;;;;;5.54;100.00;100821.94;5206399;28;20033;-67
2021/12/07 11:34:27;;;;;;;20.80;3.95;;;;;;;5.72;100.00;100819.47;5217713;28;20029;-66
2021/12/07 11:37:07;;;;;;;19.40;3.20;;;;;;;5.66;100.00;100815.53;5218243;28;20120;-66
2021/12/07 11:39:47;;;;;;;13.05;3.72;;;;;;;5.79;100.00;100794.00;5218360;28;20151;-66
2021/12/07 11:42:21;;;;;;;14.35;3.13;;;;;;;5.70;100.00;100789.50;5221156;28;20378;-66
2021/12/07 11:44:56;;;;;;;16.33;2.67;;;;;;;5.56;100.00;100792.53;5222094;28;20037;-65
2021/12/07 11:47:33;;;;;;;16.92;4.95;;;;;;;5.50;100.00;100795.75;5222446;28;20417;-66
2021/12/07 11:50:21;;;;;;;18.33;3.58;;;;;;;5.49;100.00;100784.25;5222428;28;20083;-66
2021/12/07 11:52:56;;;;;;;13.15;2.80;;;;;;;5.50;100.00;100782.44;5215348;28;20111;-66
2021/12/07 11:55:29;;;;;;;18.45;3.65;;;;;;;5.44;100.00;100774.03;5219335;28;20142;-66
2021/12/07 11:58:00;;;;;;;17.23;2.83;;;;;;;5.21;100.00;100759.22;5219288;28;20032;-66
2021/12/07 12:00:35;;;;;;;9.75;2.83;;;;;;;5.11;100.00;100739.72;5215435;28;20127;-66
2021/12/07 12:03:08;;;;;;;14.13;3.63;;;;;;;5.03;100.00;100737.75;5202732;28;20562;-66
2021/12/07 12:05:42;;;;;;;11.43;2.72;;;;;;;5.14;100.00;100723.50;5207381;28;20067;-66
2021/12/07 12:08:14;;;;;;;14.50;3.80;;;;;;;5.14;100.00;100692.44;5201899;28;20020;-65
2021/12/07 12:10:58;;;;;;;19.77;3.08;;;;;;;5.23;100.00;100701.44;5204428;28;20021;-66
2021/12/07 12:13:50;;;;;;;17.30;3.20;;;;;;;5.22;100.00;100698.88;5212137;28;20152;-66
2021/12/07 12:16:33;;;;;;;17.52;2.47;;;;;;;5.14;100.00;100688.94;5204324;28;20060;-66
2021/12/07 12:19:29;;;;;;;17.75;2.95;;;;;;;5.03;100.00;100675.75;5220510;28;20100;-66
2021/12/07 12:22:08;;;;;;;21.70;2.97;;;;;;;4.97;100.00;100665.63;5208340;28;20370;-66
2021/12/07 12:24:48;;;;;;;14.95;2.35;;;;;;;4.98;100.00;100660.19;5219588;28;20025;-67
2021/12/07 12:27:24;;;;;;;13.20;2.40;;;;;;;4.96;100.00;100654.16;5218874;28;20031;-65
2021/12/07 12:29:56;;;;;;;10.15;2.35;;;;;;;4.88;100.00;100644.22;5207388;28;20029;-68
2021/12/07 12:32:29;;;;;;;19.02;2.58;;;;;;;4.97;100.00;100639.91;5219330;28;20037;-67
2021/12/07 12:35:00;;;;;;;12.40;2.65;;;;;;;4.96;100.00;100632.88;5219385;28;20037;-66
2021/12/07 12:37:31;;;;;;;13.55;3.05;;;;;;;4.96;100.00;100627.56;5219666;28;20040;-66
2021/12/07 12:40:05;;;;;;;17.23;2.70;;;;;;;4.95;100.00;100620.59;5218888;28;20103;-67
2021/12/07 12:42:42;;;;;;;13.30;3.15;;;;;;;4.89;100.00;100615.81;5214685;28;20051;-66
2021/12/07 12:45:27;;;;;;;18.63;3.55;;;;;;;4.98;100.00;100606.19;5216059;28;20924;-66
2021/12/07 12:48:05;;;;;;;19.40;3.30;;;;;;;4.92;100.00;100595.13;5208047;28;20421;-66
2021/12/07 12:50:42;;;;;;;15.85;2.45;;;;;;;4.92;100.00;100584.50;5217793;28;20508;-67
2021/12/07 12:53:18;;;;;;;11.00;2.40;;;;;;;4.88;100.00;100577.75;5219576;28;20025;-67
2021/12/07 12:55:55;;;;;;;10.38;2.30;;;;;;;4.86;100.00;100573.53;5215373;28;20024;-66
2021/12/07 12:58:29;;;;;;;16.67;3.03;;;;;;;4.75;100.00;100568.34;5208236;28;20020;-66
2021/12/07 13:01:05;;;;;;;12.07;3.60;;;;;;;4.67;100.00;100569.03;5210762;28;20033;-66
2021/12/07 13:03:42;;;;;;;16.38;3.45;;;;;;;4.62;100.00;100565.94;5204771;28;20028;-66
2021/12/07 13:06:15;;;;;;;12.63;3.28;;;;;;;4.64;100.00;100572.78;5200425;28;20103;-67